Time;durP1;ratioP1;P1;durP2;ratioP2;P2;SDS_P1;SDS_P2;PMS_P1;PMS_P2;Temp;Humidity;BMP_temperature;BMP_pressure;BME280_temperature;BME280_humidity;BME280_pressure;Samples;Min_cycle;Max_cycle;Signal;HPM_P1;HPM_P2
2021/07/03 00:02:21;;;;;;;2.03;1.92;;;23.70;76.10;;;;;;5053955;28;20082;-75
2021/07/03 00:04:46;;;;;;;2.13;2.03;;;23.70;76.10;;;;;;5053453;28;20498;-75
2021/07/03 00:07:12;;;;;;;2.60;2.40;;;23.70;75.90;;;;;;5054892;28;20402;-75
2021/07/03 00:09:39;;;;;;;3.22;2.00;;;23.80;76.40;;;;;;5054637;28;20036;-75
2021/07/03 00:12:07;;;;;;;4.05;2.08;;;23.80;76.10;;;;;;5053039;28;20111;-75
2021/07/03 00:14:34;;;;;;;6.88;2.30;;;23.80;76.20;;;;;;5053300;28;20076;-75
2021/07/03 00:17:00;;;;;;;2.47;2.00;;;23.80;76.50;;;;;;5054694;28;20463;-75
2021/07/03 00:19:26;;;;;;;4.05;1.77;;;23.70;76.70;;;;;;5054782;28;20029;-75
2021/07/03 00:21:52;;;;;;;2.20;2.00;;;23.70;76.80;;;;;;5053007;28;20025;-75
2021/07/03 00:24:18;;;;;;;2.85;2.10;;;23.70;77.50;;;;;;5054614;28;20029;-74
2021/07/03 00:26:44;;;;;;;2.17;2.08;;;23.70;77.80;;;;;;5054383;28;20135;-75
2021/07/03 00:29:09;;;;;;;2.00;1.90;;;23.60;78.20;;;;;;5054631;28;20029;-75
2021/07/03 00:31:35;;;;;;;7.68;1.77;;;23.70;78.50;;;;;;5053844;28;20025;-75
2021/07/03 00:34:02;;;;;;;3.80;2.10;;;23.60;78.50;;;;;;5054358;28;20028;-75
2021/07/03 00:36:27;;;;;;;2.20;1.92;;;23.60;78.70;;;;;;5054192;28;20029;-75
2021/07/03 00:38:53;;;;;;;2.25;2.05;;;23.60;78.90;;;;;;5054213;28;20025;-75
2021/07/03 00:41:19;;;;;;;4.75;1.85;;;23.50;78.90;;;;;;5053542;28;20057;-75
2021/07/03 00:43:45;;;;;;;2.40;2.20;;;23.50;78.90;;;;;;5053866;28;20029;-75
2021/07/03 00:46:12;;;;;;;2.67;2.03;;;23.50;78.80;;;;;;5053821;28;20524;-75
2021/07/03 00:48:38;;;;;;;2.05;1.95;;;23.50;78.90;;;;;;5054046;28;20021;-75
2021/07/03 00:51:04;;;;;;;2.30;2.10;;;23.60;79.00;;;;;;5053915;28;20105;-75
2021/07/03 00:53:30;;;;;;;2.28;2.05;;;23.60;79.20;;;;;;5053708;28;20069;-75
2021/07/03 00:55:57;;;;;;;1.95;1.85;;;23.60;79.30;;;;;;5053613;28;20024;-74
2021/07/03 00:58:23;;;;;;;5.38;2.00;;;23.60;79.40;;;;;;5032654;28;20026;-75
2021/07/03 01:00:49;;;;;;;2.85;1.80;;;23.60;79.50;;;;;;5047422;28;20545;-75
2021/07/03 01:03:16;;;;;;;2.15;1.80;;;23.60;79.50;;;;;;5054361;28;20013;-75
2021/07/03 01:05:42;;;;;;;3.72;1.60;;;23.60;80.00;;;;;;5054171;28;20542;-75
2021/07/03 01:08:08;;;;;;;3.00;1.85;;;23.50;80.30;;;;;;5054227;28;20387;-75
2021/07/03 01:10:33;;;;;;;1.83;1.73;;;23.50;80.30;;;;;;5052718;28;20067;-76
2021/07/03 01:12:59;;;;;;;2.35;1.88;;;23.60;79.90;;;;;;5054480;28;20337;-74
2021/07/03 01:15:25;;;;;;;1.70;1.60;;;23.60;80.10;;;;;;5053973;28;20043;-75
2021/07/03 01:17:51;;;;;;;1.67;1.58;;;23.50;80.50;;;;;;5053948;28;20123;-75
2021/07/03 01:20:18;;;;;;;2.72;1.98;;;23.50;80.70;;;;;;5053983;28;20025;-74
2021/07/03 01:22:45;;;;;;;4.25;1.92;;;23.50;80.90;;;;;;5053841;28;20032;-75
2021/07/03 01:25:13;;;;;;;7.15;2.33;;;23.50;81.20;;;;;;5053734;28;20090;-75
2021/07/03 01:27:39;;;;;;;1.88;1.77;;;23.40;81.60;;;;;;5053912;28;20162;-75
2021/07/03 01:30:11;;;;;;;1.90;1.80;;;23.40;81.70;;;;;;5053758;28;20021;-75
2021/07/03 01:32:37;;;;;;;5.45;2.35;;;23.40;82.00;;;;;;5053867;28;20025;-75
2021/07/03 01:35:04;;;;;;;1.52;1.45;;;23.20;82.80;;;;;;5053444;28;20040;-75
2021/07/03 01:37:31;;;;;;;4.03;1.80;;;23.10;83.60;;;;;;5053279;28;20032;-74
2021/07/03 01:39:57;;;;;;;1.77;1.67;;;23.10;84.00;;;;;;5053437;28;20024;-75
2021/07/03 01:42:23;;;;;;;1.70;1.60;;;22.90;84.50;;;;;;5053275;28;20078;-75
2021/07/03 01:44:49;;;;;;;2.80;1.77;;;23.00;84.70;;;;;;5053345;28;20032;-75
2021/07/03 01:47:15;;;;;;;1.60;1.50;;;23.10;84.80;;;;;;5052953;28;20031;-75
2021/07/03 01:49:43;;;;;;;1.85;1.75;;;23.00;84.60;;;;;;5052846;28;20138;-75
2021/07/03 01:52:09;;;;;;;5.88;1.60;;;23.20;84.30;;;;;;5051323;28;20532;-75
2021/07/03 01:54:36;;;;;;;2.00;1.85;;;23.20;84.10;;;;;;5052902;28;20032;-75
2021/07/03 01:57:02;;;;;;;2.60;1.77;;;23.30;83.90;;;;;;5052026;28;20495;-75
2021/07/03 01:59:31;;;;;;;1.65;1.55;;;23.30;83.70;;;;;;5052864;28;20427;-74
2021/07/03 02:01:58;;;;;;;2.15;2.03;;;23.30;84.00;;;;;;5052227;28;20044;-75
2021/07/03 02:04:24;;;;;;;1.83;1.73;;;23.30;84.30;;;;;;5052508;28;20112;-75
2021/07/03 02:06:50;;;;;;;2.03;1.83;;;23.30;84.50;;;;;;5052688;28;20075;-75
2021/07/03 02:09:17;;;;;;;2.50;1.80;;;23.30;84.70;;;;;;5051525;28;20074;-75
2021/07/03 02:11:43;;;;;;;1.92;1.67;;;23.30;84.60;;;;;;5052421;28;20033;-75
2021/07/03 02:14:10;;;;;;;3.28;1.27;;;23.30;84.40;;;;;;5052625;28;20029;-75
2021/07/03 02:16:36;;;;;;;4.22;2.35;;;23.40;85.50;;;;;;5051157;28;20036;-75
2021/07/03 02:19:06;;;;;;;5.60;1.98;;;23.40;84.50;;;;;;5051229;28;20059;-75
2021/07/03 02:21:32;;;;;;;2.03;1.92;;;23.40;84.60;;;;;;5052358;28;20052;-75
2021/07/03 02:23:58;;;;;;;2.42;1.95;;;23.30;84.50;;;;;;5050915;28;20036;-75
2021/07/03 02:26:25;;;;;;;2.20;2.10;;;23.30;84.70;;;;;;5052728;28;20025;-75
2021/07/03 02:28:51;;;;;;;1.63;1.35;;;23.30;84.80;;;;;;5052424;28;20025;-75
2021/07/03 02:31:18;;;;;;;2.10;1.88;;;23.40;84.60;;;;;;5051108;28;20128;-75
2021/07/03 02:33:44;;;;;;;1.73;1.63;;;23.40;84.50;;;;;;5052205;28;20063;-75
2021/07/03 02:36:10;;;;;;;1.80;1.70;;;23.30;84.60;;;;;;5052440;28;20022;-75
2021/07/03 02:38:36;;;;;;;1.92;1.63;;;23.30;84.80;;;;;;5052600;28;20031;-75
2021/07/03 02:41:02;;;;;;;1.70;1.60;;;23.30;85.20;;;;;;5051124;28;20033;-74
2021/07/03 02:43:28;;;;;;;2.63;1.55;;;23.30;85.30;;;;;;5052526;28;20040;-75
2021/07/03 02:45:53;;;;;;;1.80;1.70;;;23.30;85.30;;;;;;5052284;28;20025;-75
2021/07/03 02:48:19;;;;;;;1.98;1.73;;;23.30;85.20;;;;;;5051939;28;20032;-75
2021/07/03 02:50:46;;;;;;;1.35;1.33;;;23.30;85.30;;;;;;5051429;28;20103;-75
2021/07/03 02:53:12;;;;;;;1.90;1.80;;;23.30;85.10;;;;;;5049525;28;20131;-75
2021/07/03 02:55:38;;;;;;;1.80;1.70;;;23.30;85.30;;;;;;5051231;28;20032;-75
2021/07/03 02:58:04;;;;;;;2.60;1.73;;;23.30;85.40;;;;;;5051861;28;20021;-75
2021/07/03 03:00:30;;;;;;;1.75;1.65;;;23.20;85.40;;;;;;5050840;28;20390;-75
2021/07/03 03:02:56;;;;;;;1.42;1.42;;;23.20;85.60;;;;;;5051565;28;20033;-75
2021/07/03 03:05:22;;;;;;;1.85;1.50;;;23.20;85.60;;;;;;5051701;28;20029;-75
2021/07/03 03:07:48;;;;;;;1.88;1.70;;;23.20;85.80;;;;;;5053231;28;20013;-75
2021/07/03 03:10:16;;;;;;;1.50;1.50;;;23.20;85.70;;;;;;5054101;28;20616;-75
2021/07/03 03:12:42;;;;;;;8.23;1.45;;;23.30;85.80;;;;;;5052612;28;20017;-75
2021/07/03 03:15:08;;;;;;;2.25;1.60;;;23.30;85.60;;;;;;5054382;28;20364;-75
2021/07/03 03:17:34;;;;;;;1.58;1.38;;;23.40;85.30;;;;;;5054328;28;20653;-75
2021/07/03 03:20:00;;;;;;;2.65;1.70;;;23.40;85.10;;;;;;5053125;28;20057;-75
2021/07/03 03:22:26;;;;;;;1.63;1.52;;;23.40;84.90;;;;;;5054284;28;20230;-75
2021/07/03 03:24:52;;;;;;;1.50;1.40;;;23.30;85.50;;;;;;5054333;28;20141;-75
2021/07/03 03:27:17;;;;;;;1.63;1.45;;;23.40;85.50;;;;;;5054776;28;20032;-75
2021/07/03 03:29:43;;;;;;;4.63;1.65;;;23.40;85.40;;;;;;5055379;28;20060;-75
2021/07/03 03:32:09;;;;;;;2.00;1.30;;;23.40;85.40;;;;;;5055483;28;20063;-75
2021/07/03 03:34:35;;;;;;;1.90;1.52;;;23.30;85.80;;;;;;5055373;28;20025;-75
2021/07/03 03:37:00;;;;;;;1.98;1.10;;;23.20;86.30;;;;;;5053914;28;20039;-75
2021/07/03 03:39:26;;;;;;;1.48;1.38;;;23.20;86.60;;;;;;5055194;28;20477;-75
2021/07/03 03:41:52;;;;;;;1.40;1.30;;;23.10;86.90;;;;;;5055013;28;20629;-75
2021/07/03 03:44:19;;;;;;;3.83;1.42;;;23.10;87.20;;;;;;5054940;28;20029;-75
2021/07/03 03:46:45;;;;;;;1.10;1.10;;;23.10;87.40;;;;;;5055069;28;20028;-75
2021/07/03 03:49:11;;;;;;;3.05;1.40;;;23.00;87.50;;;;;;5055184;28;20028;-75
2021/07/03 03:51:37;;;;;;;1.10;1.10;;;23.00;87.70;;;;;;5055172;28;20013;-75
2021/07/03 03:54:03;;;;;;;3.08;1.85;;;23.10;87.40;;;;;;5054722;28;20082;-75
2021/07/03 03:56:29;;;;;;;1.73;1.48;;;23.10;87.40;;;;;;5054885;28;20509;-75
2021/07/03 03:58:55;;;;;;;1.77;1.40;;;23.20;87.10;;;;;;5053416;28;20032;-75
2021/07/03 04:01:20;;;;;;;1.23;1.13;;;23.30;86.90;;;;;;5054693;28;20057;-75
2021/07/03 04:03:46;;;;;;;2.55;1.90;;;23.30;86.80;;;;;;5054570;28;20602;-75
2021/07/03 04:06:12;;;;;;;1.88;1.60;;;23.30;86.60;;;;;;5053457;28;20036;-75
2021/07/03 04:08:37;;;;;;;1.23;1.23;;;23.30;86.80;;;;;;5054765;28;20032;-75
2021/07/03 04:11:04;;;;;;;1.20;1.20;;;23.20;87.30;;;;;;5054810;28;20070;-75
2021/07/03 04:13:29;;;;;;;1.92;1.27;;;23.20;87.40;;;;;;5054619;28;20032;-75
2021/07/03 04:15:55;;;;;;;2.65;1.25;;;23.20;87.40;;;;;;5054611;28;20025;-75
2021/07/03 04:18:21;;;;;;;1.08;0.98;;;23.20;87.60;;;;;;5054572;28;20017;-75
2021/07/03 04:20:47;;;;;;;4.25;1.75;;;23.20;87.70;;;;;;5052473;28;20700;-75
2021/07/03 04:23:12;;;;;;;2.22;1.17;;;23.20;88.00;;;;;;5054363;28;20371;-75
2021/07/03 04:25:38;;;;;;;1.60;1.50;;;23.20;88.10;;;;;;5054262;28;20379;-75
2021/07/03 04:28:04;;;;;;;2.38;1.52;;;23.30;88.00;;;;;;5054162;28;20017;-75
2021/07/03 04:30:30;;;;;;;1.73;1.30;;;23.30;88.00;;;;;;5054222;28;20021;-75
2021/07/03 04:32:57;;;;;;;1.50;1.40;;;23.20;88.20;;;;;;5053810;28;20024;-75
2021/07/03 04:35:22;;;;;;;1.80;1.60;;;23.20;88.20;;;;;;5052830;28;20514;-75
2021/07/03 04:37:48;;;;;;;2.78;1.40;;;23.30;88.00;;;;;;5054312;28;20025;-75
2021/07/03 04:40:14;;;;;;;1.83;1.73;;;23.30;87.70;;;;;;5054246;28;20025;-75
2021/07/03 04:42:40;;;;;;;5.10;1.30;;;23.30;87.90;;;;;;5052538;28;20025;-75
2021/07/03 04:45:06;;;;;;;1.77;1.30;;;23.30;88.10;;;;;;5052454;28;20475;-75
2021/07/03 04:47:33;;;;;;;2.00;1.70;;;23.30;88.20;;;;;;5054074;28;20025;-75
2021/07/03 04:49:58;;;;;;;1.23;1.23;;;23.30;88.20;;;;;;5053468;28;20024;-75
2021/07/03 04:52:26;;;;;;;1.60;1.50;;;23.50;87.90;;;;;;5052225;28;20053;-75
2021/07/03 04:54:52;;;;;;;1.70;1.60;;;23.50;87.50;;;;;;5053715;28;20032;-75
2021/07/03 04:57:18;;;;;;;1.63;1.52;;;23.50;87.00;;;;;;5053779;28;20422;-75
2021/07/03 04:59:44;;;;;;;5.30;1.83;;;23.60;86.80;;;;;;5067248;28;20055;-74
2021/07/03 05:02:12;;;;;;;2.47;1.27;;;23.60;86.20;;;;;;5059875;28;20032;-75
2021/07/03 05:04:38;;;;;;;1.98;1.60;;;23.70;86.20;;;;;;5052125;28;20063;-75
2021/07/03 05:07:05;;;;;;;2.80;1.50;;;23.80;86.70;;;;;;5052322;28;20021;-75
2021/07/03 05:09:31;;;;;;;3.08;1.48;;;23.90;87.30;;;;;;5052190;28;20854;-75
2021/07/03 05:11:57;;;;;;;4.75;1.40;;;23.90;86.70;;;;;;5053465;28;20032;-75
2021/07/03 05:14:24;;;;;;;2.00;1.50;;;23.90;86.30;;;;;;5053394;28;20021;-75
2021/07/03 05:16:50;;;;;;;1.33;1.30;;;23.90;86.30;;;;;;5053496;28;20025;-75
2021/07/03 05:19:16;;;;;;;1.45;1.35;;;24.00;86.30;;;;;;5053331;28;20021;-75
2021/07/03 05:21:42;;;;;;;1.88;1.50;;;24.00;86.10;;;;;;5053299;28;20036;-75
2021/07/03 05:24:08;;;;;;;1.75;1.65;;;24.00;85.60;;;;;;5052060;28;20375;-75
2021/07/03 05:26:35;;;;;;;1.73;1.60;;;24.00;85.40;;;;;;5053379;28;20017;-75
2021/07/03 05:29:01;;;;;;;1.67;1.58;;;24.00;85.50;;;;;;5053247;28;20053;-74
2021/07/03 05:31:27;;;;;;;1.55;1.45;;;24.00;85.80;;;;;;5052472;28;20028;-75
2021/07/03 05:33:53;;;;;;;6.03;1.88;;;24.00;85.60;;;;;;5052983;28;20391;-75
2021/07/03 05:36:19;;;;;;;2.35;1.60;;;24.00;85.40;;;;;;5051657;28;20021;-75
2021/07/03 05:38:47;;;;;;;1.77;1.67;;;24.00;85.40;;;;;;5051755;28;20040;-75
2021/07/03 05:41:15;;;;;;;2.65;1.58;;;24.10;85.50;;;;;;5048100;28;20048;-75
2021/07/03 05:43:40;;;;;;;3.85;1.10;;;24.10;85.30;;;;;;5031505;28;20091;-75
2021/07/03 05:46:08;;;;;;;3.30;2.00;;;24.10;85.30;;;;;;5032906;28;20057;-74
2021/07/03 05:48:35;;;;;;;3.05;1.90;;;24.20;85.20;;;;;;5033004;28;20427;-75
2021/07/03 05:51:01;;;;;;;2.30;1.48;;;24.20;85.40;;;;;;5032833;28;20537;-75
2021/07/03 05:53:27;;;;;;;1.73;1.35;;;24.30;85.90;;;;;;5032632;28;20567;-75
2021/07/03 05:55:53;;;;;;;2.05;1.95;;;24.30;85.90;;;;;;5037383;28;20108;-75
2021/07/03 05:58:19;;;;;;;1.42;1.35;;;24.30;86.50;;;;;;5052721;28;20031;-75
2021/07/03 06:00:45;;;;;;;2.30;1.55;;;24.30;86.00;;;;;;5051094;28;20087;-75
2021/07/03 06:03:10;;;;;;;2.95;1.30;;;24.30;85.70;;;;;;5052251;28;20028;-75
2021/07/03 06:05:36;;;;;;;0.93;0.93;;;24.30;85.30;;;;;;5054005;28;20043;-75
2021/07/03 06:08:02;;;;;;;1.60;1.50;;;24.40;85.10;;;;;;5065209;28;20020;-75
2021/07/03 06:10:28;;;;;;;1.77;1.67;;;24.40;85.20;;;;;;5055814;28;20371;-75
2021/07/03 06:12:54;;;;;;;4.40;2.00;;;24.40;86.00;;;;;;5053015;28;20021;-75
2021/07/03 06:15:19;;;;;;;2.58;1.83;;;24.40;86.30;;;;;;5052525;28;20028;-75
2021/07/03 06:17:45;;;;;;;7.32;2.20;;;24.60;87.40;;;;;;5051089;28;20124;-75
2021/07/03 06:20:11;;;;;;;3.15;1.90;;;24.60;87.10;;;;;;5049527;28;20036;-75
2021/07/03 06:22:38;;;;;;;9.35;2.55;;;24.60;86.60;;;;;;5052313;28;20467;-75
2021/07/03 06:25:05;;;;;;;2.28;2.10;;;24.60;87.80;;;;;;5051862;28;20032;-75
2021/07/03 06:27:32;;;;;;;7.25;2.85;;;24.70;87.90;;;;;;5052380;28;20551;-75
2021/07/03 06:29:58;;;;;;;3.70;3.22;;;24.70;87.90;;;;;;5052395;28;20025;-75
2021/07/03 06:32:23;;;;;;;4.63;3.33;;;24.70;87.70;;;;;;5052551;28;20017;-75
2021/07/03 06:34:49;;;;;;;4.53;3.28;;;24.70;88.10;;;;;;5053677;28;20040;-75
2021/07/03 06:37:15;;;;;;;3.40;3.15;;;24.70;88.50;;;;;;5052123;28;20021;-75
2021/07/03 06:39:43;;;;;;;3.80;2.90;;;24.70;88.10;;;;;;5051704;28;20025;-75
2021/07/03 06:42:10;;;;;;;4.43;2.50;;;24.70;86.40;;;;;;5051923;28;20021;-75
2021/07/03 06:44:35;;;;;;;2.53;2.28;;;24.80;85.20;;;;;;5055576;28;20037;-75
2021/07/03 06:47:01;;;;;;;4.97;2.90;;;24.90;85.10;;;;;;5055992;28;20394;-75
2021/07/03 06:49:27;;;;;;;7.30;2.22;;;25.00;84.30;;;;;;5055785;28;20025;-75
2021/07/03 06:51:53;;;;;;;3.17;2.15;;;25.00;84.60;;;;;;5060705;28;20021;-75
2021/07/03 06:54:19;;;;;;;2.53;2.13;;;25.20;84.10;;;;;;5055371;28;20033;-75
2021/07/03 06:56:44;;;;;;;1.95;1.70;;;25.30;83.20;;;;;;5055945;28;20104;-75
2021/07/03 06:59:10;;;;;;;2.20;2.00;;;25.30;79.80;;;;;;5055755;28;20024;-75
2021/07/03 07:01:36;;;;;;;2.22;2.13;;;25.30;80.30;;;;;;5055337;28;20028;-75
2021/07/03 07:04:02;;;;;;;2.67;1.83;;;25.40;80.50;;;;;;5054106;28;20048;-75
2021/07/03 07:06:28;;;;;;;3.58;1.90;;;25.40;79.00;;;;;;5054430;28;20017;-75
2021/07/03 07:08:54;;;;;;;3.78;1.50;;;25.50;77.80;;;;;;5054383;28;20413;-75
2021/07/03 07:11:19;;;;;;;2.47;2.28;;;25.50;77.30;;;;;;5053975;28;20013;-75
2021/07/03 07:13:45;;;;;;;6.13;2.00;;;25.50;78.30;;;;;;5055327;28;20509;-74
2021/07/03 07:16:11;;;;;;;4.35;2.03;;;25.50;79.40;;;;;;5054335;28;20130;-74
2021/07/03 07:18:37;;;;;;;5.50;2.25;;;25.70;79.10;;;;;;5055528;28;20029;-75
2021/07/03 07:21:02;;;;;;;4.78;2.28;;;25.70;77.90;;;;;;5054921;28;20028;-75
2021/07/03 07:23:28;;;;;;;7.47;2.63;;;25.60;77.80;;;;;;5054862;28;20036;-75
2021/07/03 07:25:54;;;;;;;5.90;2.33;;;25.60;78.00;;;;;;5055064;28;20471;-75
2021/07/03 07:28:20;;;;;;;2.50;2.30;;;25.60;78.10;;;;;;5055212;28;20379;-75
2021/07/03 07:30:45;;;;;;;3.75;2.47;;;25.70;78.80;;;;;;5055198;28;20383;-75
2021/07/03 07:33:11;;;;;;;4.05;2.50;;;25.70;78.00;;;;;;5055009;28;20021;-74
2021/07/03 07:35:37;;;;;;;4.00;2.40;;;25.80;78.30;;;;;;5054955;28;20052;-74
2021/07/03 07:38:03;;;;;;;3.55;2.38;;;25.80;78.50;;;;;;5054878;28;20025;-74
2021/07/03 07:40:28;;;;;;;2.05;1.80;;;25.80;76.50;;;;;;5054911;28;20475;-74
2021/07/03 07:42:54;;;;;;;3.50;2.63;;;25.90;77.00;;;;;;5054924;28;20048;-75
2021/07/03 07:45:20;;;;;;;11.60;2.58;;;25.90;75.90;;;;;;5054463;28;20032;-75
2021/07/03 07:47:47;;;;;;;2.40;2.22;;;25.80;75.20;;;;;;5053316;28;20017;-75
2021/07/03 07:50:13;;;;;;;3.20;1.92;;;25.80;76.00;;;;;;5053386;28;20023;-74
2021/07/03 07:52:38;;;;;;;3.55;2.08;;;25.80;76.10;;;;;;5054160;28;20045;-75
2021/07/03 07:55:05;;;;;;;3.67;2.03;;;25.90;75.90;;;;;;5052878;28;20025;-75
2021/07/03 07:57:31;;;;;;;2.45;1.80;;;25.90;74.50;;;;;;5053676;28;20025;-75
2021/07/03 07:59:56;;;;;;;5.13;1.52;;;26.00;75.10;;;;;;5053594;28;20095;-75
2021/07/03 08:02:22;;;;;;;3.50;1.95;;;26.10;75.50;;;;;;5053732;28;20557;-75
2021/07/03 08:04:48;;;;;;;2.80;1.67;;;26.10;75.20;;;;;;5052661;28;20037;-74
2021/07/03 08:07:13;;;;;;;1.50;1.40;;;26.20;72.20;;;;;;5052950;28;20017;-75
2021/07/03 08:09:43;;;;;;;4.00;1.40;;;26.30;71.10;;;;;;5049076;28;20498;-74
2021/07/03 08:12:10;;;;;;;2.28;1.33;;;26.30;71.20;;;;;;5049872;28;20019;-75
2021/07/03 08:14:36;;;;;;;4.22;1.85;;;26.40;69.10;;;;;;5053478;28;20545;-74
2021/07/03 08:17:02;;;;;;;1.90;1.80;;;26.30;68.20;;;;;;5053363;28;20017;-75
2021/07/03 08:19:27;;;;;;;2.35;1.30;;;26.30;69.10;;;;;;5053425;28;20036;-75
2021/07/03 08:21:57;;;;;;;4.03;1.30;;;26.50;68.60;;;;;;5052970;28;20074;-74
2021/07/03 08:24:23;;;;;;;1.50;1.40;;;26.40;66.00;;;;;;5051648;28;20024;-75
2021/07/03 08:26:49;;;;;;;1.67;1.40;;;26.50;67.00;;;;;;5054277;28;20586;-75
2021/07/03 08:29:15;;;;;;;1.52;1.40;;;26.50;68.20;;;;;;5053192;28;20025;-75
2021/07/03 08:31:41;;;;;;;4.72;1.60;;;26.50;69.50;;;;;;5053139;28;20028;-75
2021/07/03 08:34:06;;;;;;;1.63;1.27;;;26.70;70.50;;;;;;5051621;28;20021;-74
2021/07/03 08:36:32;;;;;;;4.13;1.77;;;26.80;66.70;;;;;;5052822;28;20028;-74
2021/07/03 08:38:58;;;;;;;3.65;1.30;;;26.80;67.90;;;;;;5051727;28;20067;-75
2021/07/03 08:41:24;;;;;;;1.65;1.10;;;26.90;66.80;;;;;;5048190;28;20021;-75
2021/07/03 08:43:50;;;;;;;1.70;1.40;;;26.90;68.00;;;;;;5052690;28;20027;-74
2021/07/03 08:46:20;;;;;;;2.10;1.70;;;27.00;69.00;;;;;;5052733;28;20383;-75
2021/07/03 08:48:51;;;;;;;1.50;1.40;;;26.90;65.40;;;;;;5054053;28;20103;-75
2021/07/03 08:51:17;;;;;;;1.40;1.30;;;26.90;65.80;;;;;;5052757;28;20049;-75
2021/07/03 08:53:43;;;;;;;4.07;1.30;;;27.00;64.70;;;;;;5052467;28;20075;-75
2021/07/03 08:56:09;;;;;;;2.55;1.65;;;27.10;64.90;;;;;;5052557;28;20051;-75
2021/07/03 08:58:35;;;;;;;1.08;1.00;;;27.20;63.50;;;;;;5053015;28;20489;-74
2021/07/03 09:01:04;;;;;;;1.45;1.27;;;27.20;63.60;;;;;;5053696;28;20025;-75
2021/07/03 09:03:30;;;;;;;2.33;1.10;;;27.20;61.20;;;;;;5051736;28;20025;-74
2021/07/03 09:05:59;;;;;;;1.20;1.17;;;27.20;60.30;;;;;;5050594;28;20025;-74
2021/07/03 09:08:26;;;;;;;3.08;1.40;;;27.10;59.50;;;;;;5053443;28;20091;-75
2021/07/03 09:11:03;;;;;;;5.03;1.30;;;27.10;61.00;;;;;;5052370;28;20021;-74
2021/07/03 09:13:30;;;;;;;1.13;1.10;;;27.10;61.50;;;;;;5052892;28;20029;-75
2021/07/03 09:15:56;;;;;;;6.03;1.33;;;27.10;63.00;;;;;;5052596;28;20021;-74
2021/07/03 09:18:22;;;;;;;0.90;0.90;;;27.30;62.90;;;;;;5052727;28;20128;-74
2021/07/03 09:20:54;;;;;;;1.10;1.02;;;27.40;62.00;;;;;;5052367;28;20112;-75
2021/07/03 09:23:32;;;;;;;1.17;1.08;;;27.60;62.10;;;;;;5052951;28;20028;-74
2021/07/03 09:26:01;;;;;;;1.35;0.75;;;27.50;60.70;;;;;;5052865;28;20025;-74
2021/07/03 09:28:29;;;;;;;2.88;0.90;;;27.60;57.60;;;;;;5051842;28;20021;-75
2021/07/03 09:31:03;;;;;;;1.65;0.73;;;27.70;57.10;;;;;;5051990;28;20087;-75
2021/07/03 09:33:48;;;;;;;1.25;0.88;;;27.70;57.40;;;;;;5052438;28;20033;-75
2021/07/03 09:36:22;;;;;;;1.35;0.63;;;27.90;58.20;;;;;;5051250;28;20471;-74
2021/07/03 09:38:49;;;;;;;2.67;0.77;;;27.90;57.50;;;;;;5052281;28;20044;-74
2021/07/03 09:41:16;;;;;;;0.70;0.70;;;28.00;56.90;;;;;;5051864;28;20387;-75
2021/07/03 09:43:48;;;;;;;1.05;0.80;;;28.00;56.50;;;;;;5051643;28;20128;-75
2021/07/03 09:46:30;;;;;;;;;;;28.00;56.70;;;;;;5053364;28;20100;-75
2021/07/03 09:49:07;;;;;;;4.45;0.70;;;28.20;57.50;;;;;;5053031;28;19904;-75
2021/07/03 09:51:45;;;;;;;1.63;0.60;;;28.20;58.20;;;;;;5052604;28;20025;-75
2021/07/03 09:54:15;;;;;;;1.25;0.80;;;28.30;58.90;;;;;;5050995;28;20143;-74
2021/07/03 09:56:41;;;;;;;1.63;0.93;;;28.30;56.80;;;;;;5051429;28;20146;-74
2021/07/03 09:59:08;;;;;;;2.03;0.60;;;28.50;56.50;;;;;;5052860;28;20039;-75
2021/07/03 10:01:38;;;;;;;2.90;1.00;;;28.60;55.80;;;;;;5052586;28;20025;-74
2021/07/03 10:04:04;;;;;;;1.02;0.80;;;28.50;55.00;;;;;;5051297;28;20032;-75
2021/07/03 10:06:40;;;;;;;1.70;0.80;;;28.40;54.20;;;;;;5052764;28;20099;-75
2021/07/03 10:09:09;;;;;;;1.00;0.98;;;28.30;54.60;;;;;;5052995;28;20075;-75
2021/07/03 10:11:45;;;;;;;1.90;1.02;;;28.30;55.20;;;;;;5051377;28;20363;-75
2021/07/03 10:14:12;;;;;;;2.00;1.42;;;28.40;55.60;;;;;;5052652;28;20064;-75
2021/07/03 10:16:38;;;;;;;2.53;1.40;;;28.40;55.00;;;;;;5051334;28;20108;-75
2021/07/03 10:19:16;;;;;;;2.42;1.30;;;28.40;54.70;;;;;;5052278;28;20183;-75
2021/07/03 10:21:43;;;;;;;2.28;1.77;;;28.30;55.10;;;;;;5052765;28;20047;-75
2021/07/03 10:24:16;;;;;;;4.95;2.20;;;28.30;55.40;;;;;;5052252;28;20391;-75
2021/07/03 10:26:43;;;;;;;4.20;1.50;;;28.50;55.90;;;;;;5052541;28;20417;-75
2021/07/03 10:29:23;;;;;;;1.75;1.45;;;28.50;56.00;;;;;;5051184;28;20013;-75
2021/07/03 10:31:51;;;;;;;1.90;1.80;;;28.50;55.70;;;;;;5052598;28;20554;-74
2021/07/03 10:34:31;;;;;;;2.88;1.67;;;28.50;56.30;;;;;;5052330;28;20413;-75
2021/07/03 10:36:59;;;;;;;1.45;1.35;;;28.60;57.00;;;;;;5052419;28;20035;-75
2021/07/03 10:39:30;;;;;;;1.67;1.30;;;28.60;56.90;;;;;;5052486;28;20029;-75
2021/07/03 10:41:56;;;;;;;2.10;1.80;;;28.80;58.30;;;;;;5052473;28;20021;-75
2021/07/03 10:44:22;;;;;;;4.65;3.40;;;28.90;57.20;;;;;;5050886;28;20506;-75
2021/07/03 10:46:48;;;;;;;6.00;4.38;;;28.90;55.70;;;;;;5051106;28;20027;-75
2021/07/03 10:49:19;;;;;;;4.25;3.85;;;29.10;56.00;;;;;;5052436;28;20021;-75
2021/07/03 10:51:47;;;;;;;4.35;3.95;;;29.30;57.70;;;;;;5052208;28;20104;-75
2021/07/03 10:54:24;;;;;;;9.30;5.90;;;29.50;56.60;;;;;;5051850;28;20537;-75
2021/07/03 10:57:04;;;;;;;10.88;7.60;;;29.50;54.80;;;;;;5052963;28;20021;-75
2021/07/03 10:59:40;;;;;;;14.48;7.03;;;29.30;54.00;;;;;;5071879;28;20024;-75
2021/07/03 11:02:09;;;;;;;10.00;6.55;;;29.50;55.20;;;;;;5072218;28;20074;-75
2021/07/03 11:04:51;;;;;;;9.85;7.20;;;29.60;53.50;;;;;;5071986;28;20033;-75
2021/07/03 11:07:20;;;;;;;13.25;6.93;;;29.60;55.40;;;;;;5072270;28;20486;-75
2021/07/03 11:09:49;;;;;;;10.82;5.75;;;29.70;53.50;;;;;;5072243;28;20017;-75
2021/07/03 11:12:18;;;;;;;7.57;6.40;;;29.70;53.40;;;;;;5058853;28;20138;-75
2021/07/03 11:14:56;;;;;;;11.38;6.15;;;29.80;55.00;;;;;;5051938;28;20052;-75
2021/07/03 11:17:26;;;;;;;7.93;5.90;;;29.90;54.00;;;;;;5052193;28;20029;-75
2021/07/03 11:19:54;;;;;;;10.13;6.30;;;29.90;53.90;;;;;;5052028;28;20021;-75
2021/07/03 11:22:24;;;;;;;6.72;4.93;;;29.80;52.80;;;;;;5052067;28;20021;-75
2021/07/03 11:24:55;;;;;;;5.15;4.75;;;29.90;54.70;;;;;;5051880;28;20033;-75
2021/07/03 11:27:35;;;;;;;6.38;4.07;;;30.00;52.30;;;;;;5052100;28;20633;-75
2021/07/03 11:30:19;;;;;;;3.97;3.67;;;30.10;52.40;;;;;;5053261;28;20029;-76
2021/07/03 11:32:48;;;;;;;4.20;3.80;;;30.10;51.70;;;;;;5035600;28;20046;-75
2021/07/03 11:35:14;;;;;;;4.18;3.60;;;30.30;52.90;;;;;;5035537;28;20026;-75
2021/07/03 11:37:40;;;;;;;6.15;3.45;;;30.30;50.90;;;;;;5035763;28;20467;-75
2021/07/03 11:40:15;;;;;;;3.75;3.45;;;30.40;51.70;;;;;;5035372;28;20018;-75
2021/07/03 11:42:50;;;;;;;5.43;3.50;;;30.50;52.20;;;;;;5037574;28;20029;-75
2021/07/03 11:45:18;;;;;;;5.95;4.90;;;30.70;53.40;;;;;;5054778;28;20383;-75
2021/07/03 11:47:47;;;;;;;9.73;5.22;;;30.50;51.70;;;;;;5055264;28;20100;-75
2021/07/03 11:50:22;;;;;;;5.70;4.40;;;30.60;52.20;;;;;;5055162;28;20068;-75
2021/07/03 11:52:51;;;;;;;4.68;4.32;;;30.70;52.10;;;;;;5035022;28;20037;-75
2021/07/03 11:55:22;;;;;;;4.45;4.05;;;30.60;51.50;;;;;;5035335;28;20136;-75
2021/07/03 11:57:49;;;;;;;;;;;30.80;52.90;;;;;;5035922;28;20113;-75
2021/07/03 12:00:17;;;;;;;4.85;3.38;;;30.80;51.50;;;;;;5035096;28;19905;-75
2021/07/03 12:02:43;;;;;;;3.80;3.50;;;30.90;49.90;;;;;;5054048;28;20059;-75
2021/07/03 12:05:10;;;;;;;4.65;4.32;;;31.10;51.30;;;;;;5054906;28;20661;-75
2021/07/03 12:07:36;;;;;;;5.57;3.90;;;31.20;50.70;;;;;;5053225;28;20099;-75
2021/07/03 12:10:10;;;;;;;4.97;4.30;;;31.30;51.00;;;;;;5054866;28;20029;-75
2021/07/03 12:12:38;;;;;;;5.72;4.22;;;31.40;50.40;;;;;;5054369;28;20071;-75
2021/07/03 12:15:05;;;;;;;4.30;4.03;;;31.40;50.10;;;;;;5054678;28;20025;-75
2021/07/03 12:17:31;;;;;;;4.10;3.80;;;31.40;48.00;;;;;;5054546;28;20028;-75
2021/07/03 12:20:10;;;;;;;4.88;3.72;;;31.30;49.10;;;;;;5054933;28;20029;-75
2021/07/03 12:22:38;;;;;;;3.70;3.40;;;31.40;49.00;;;;;;5054483;28;20032;-75
2021/07/03 12:25:31;;;;;;;6.63;3.00;;;31.60;49.30;;;;;;5053348;28;20490;-75
2021/07/03 12:28:01;;;;;;;2.75;2.55;;;31.60;49.00;;;;;;5052669;28;20426;-75
2021/07/03 12:30:29;;;;;;;7.43;2.50;;;31.60;50.90;;;;;;5052549;28;20032;-75
2021/07/03 12:33:06;;;;;;;2.17;2.00;;;31.80;50.90;;;;;;5053461;28;20473;-75
2021/07/03 12:35:39;;;;;;;4.80;1.95;;;31.80;48.30;;;;;;5053603;28;20033;-75
2021/07/03 12:38:06;;;;;;;1.63;1.27;;;31.90;47.60;;;;;;5052302;28;20491;-75
2021/07/03 12:40:36;;;;;;;4.95;1.23;;;32.10;48.70;;;;;;5053060;28;20052;-75
2021/07/03 12:43:02;;;;;;;3.50;1.60;;;32.20;47.40;;;;;;5051897;28;20363;-75
2021/07/03 12:45:28;;;;;;;2.53;1.27;;;32.20;48.10;;;;;;5053751;28;20115;-75
2021/07/03 12:48:05;;;;;;;1.23;1.13;;;32.30;46.90;;;;;;5054074;28;20421;-75
2021/07/03 12:50:31;;;;;;;1.50;1.40;;;32.40;46.70;;;;;;5052465;28;20032;-75